sensor_id;sensor_type;location;lat;lon;timestamp;temperature;humidity
9537;DHT22;4807;48.024;11.726;2023-01-16T00:02:47;-0.10;99.90
9537;DHT22;4807;48.024;11.726;2023-01-16T00:05:55;-0.20;99.90
9537;DHT22;4807;48.024;11.726;2023-01-16T00:09:04;-0.20;99.90
9537;DHT22;4807;48.024;11.726;2023-01-16T00:12:13;-0.10;99.90
9537;DHT22;4807;48.024;11.726;2023-01-16T00:15:22;-0.10;99.90
9537;DHT22;4807;48.024;11.726;2023-01-16T00:18:30;-0.10;99.90
9537;DHT22;4807;48.024;11.726;2023-01-16T00:21:38;-0.10;99.90
9537;DHT22;4807;48.024;11.726;2023-01-16T00:24:48;-0.10;99.90
9537;DHT22;4807;48.024;11.726;2023-01-16T00:27:56;-0.10;99.90
9537;DHT22;4807;48.024;11.726;2023-01-16T00:31:04;-0.20;99.90
9537;DHT22;4807;48.024;11.726;2023-01-16T00:34:13;-0.20;99.90
9537;DHT22;4807;48.024;11.726;2023-01-16T00:37:21;-0.20;99.90
9537;DHT22;4807;48.024;11.726;2023-01-16T00:40:31;-0.30;99.90
9537;DHT22;4807;48.024;11.726;2023-01-16T00:43:40;-0.20;99.90
9537;DHT22;4807;48.024;11.726;2023-01-16T00:46:48;-0.20;99.90
9537;DHT22;4807;48.024;11.726;2023-01-16T00:49:57;-0.20;99.90
9537;DHT22;4807;48.024;11.726;2023-01-16T00:53:05;-0.10;99.90
9537;DHT22;4807;48.024;11.726;2023-01-16T00:56:15;-0.10;99.90
9537;DHT22;4807;48.024;11.726;2023-01-16T00:59:23;-0.10;99.90
9537;DHT22;4807;48.024;11.726;2023-01-16T01:02:32;-0.20;99.90
9537;DHT22;4807;48.024;11.726;2023-01-16T01:05:40;-0.20;99.90
9537;DHT22;4807;48.024;11.726;2023-01-16T01:08:48;-0.20;99.90
9537;DHT22;4807;48.024;11.726;2023-01-16T01:11:59;-0.20;99.90
9537;DHT22;4807;48.024;11.726;2023-01-16T01:15:08;-0.10;99.90
9537;DHT22;4807;48.024;11.726;2023-01-16T01:18:16;0.10;99.90
9537;DHT22;4807;48.024;11.726;2023-01-16T01:21:24;0.10;99.90
9537;DHT22;4807;48.024;11.726;2023-01-16T01:24:33;0.20;99.90
9537;DHT22;4807;48.024;11.726;2023-01-16T01:27:43;0.20;99.90
9537;DHT22;4807;48.024;11.726;2023-01-16T01:30:51;0.20;99.90
9537;DHT22;4807;48.024;11.726;2023-01-16T01:33:59;0.20;99.90
9537;DHT22;4807;48.024;11.726;2023-01-16T01:37:08;0.20;99.90
9537;DHT22;4807;48.024;11.726;2023-01-16T01:40:16;0.10;99.90
9537;DHT22;4807;48.024;11.726;2023-01-16T01:43:40;0.10;99.90
9537;DHT22;4807;48.024;11.726;2023-01-16T01:46:50;0.10;99.90
9537;DHT22;4807;48.024;11.726;2023-01-16T01:50:02;0.10;99.90
9537;DHT22;4807;48.024;11.726;2023-01-16T01:53:15;0.20;99.90
9537;DHT22;4807;48.024;11.726;2023-01-16T01:56:32;0.20;99.90
9537;DHT22;4807;48.024;11.726;2023-01-16T01:59:49;0.20;99.90
9537;DHT22;4807;48.024;11.726;2023-01-16T02:03:07;0.20;99.90
9537;DHT22;4807;48.024;11.726;2023-01-16T02:06:25;0.10;99.90
9537;DHT22;4807;48.024;11.726;2023-01-16T02:09:55;0.20;99.90
9537;DHT22;4807;48.024;11.726;2023-01-16T02:13:10;0.20;99.90
9537;DHT22;4807;48.024;11.726;2023-01-16T02:16:20;0.10;99.90
9537;DHT22;4807;48.024;11.726;2023-01-16T02:20:14;0.10;99.90
9537;DHT22;4807;48.024;11.726;2023-01-16T02:27:54;0.10;99.90
9537;DHT22;4807;48.024;11.726;2023-01-16T02:31:31;0.10;99.90
9537;DHT22;4807;48.024;11.726;2023-01-16T02:35:05;0.10;99.90
9537;DHT22;4807;48.024;11.726;2023-01-16T02:38:34;0.10;99.90
9537;DHT22;4807;48.024;11.726;2023-01-16T02:41:58;0.10;99.90
9537;DHT22;4807;48.024;11.726;2023-01-16T02:45:21;0.20;99.90
9537;DHT22;4807;48.024;11.726;2023-01-16T02:48:42;0.10;99.90
9537;DHT22;4807;48.024;11.726;2023-01-16T02:51:58;0.10;99.90
9537;DHT22;4807;48.024;11.726;2023-01-16T02:55:18;0.00;99.90
9537;DHT22;4807;48.024;11.726;2023-01-16T02:58:32;0.10;99.90
9537;DHT22;4807;48.024;11.726;2023-01-16T03:01:44;0.10;99.90
9537;DHT22;4807;48.024;11.726;2023-01-16T03:04:55;0.10;99.90
9537;DHT22;4807;48.024;11.726;2023-01-16T03:08:20;0.00;99.90
9537;DHT22;4807;48.024;11.726;2023-01-16T03:11:47;0.00;99.90
9537;DHT22;4807;48.024;11.726;2023-01-16T03:15:11;-0.20;99.90
9537;DHT22;4807;48.024;11.726;2023-01-16T03:18:32;-0.20;99.90
9537;DHT22;4807;48.024;11.726;2023-01-16T03:21:58;-0.20;99.90
9537;DHT22;4807;48.024;11.726;2023-01-16T03:25:21;-0.20;99.90
9537;DHT22;4807;48.024;11.726;2023-01-16T03:28:44;-0.20;99.90
9537;DHT22;4807;48.024;11.726;2023-01-16T03:32:05;-0.30;99.90
9537;DHT22;4807;48.024;11.726;2023-01-16T03:35:20;-0.40;99.90
9537;DHT22;4807;48.024;11.726;2023-01-16T03:38:35;-0.30;99.90
9537;DHT22;4807;48.024;11.726;2023-01-16T03:41:46;-0.30;99.90
9537;DHT22;4807;48.024;11.726;2023-01-16T03:45:02;-0.20;99.90
9537;DHT22;4807;48.024;11.726;2023-01-16T03:48:20;-0.30;99.90
9537;DHT22;4807;48.024;11.726;2023-01-16T03:51:35;-0.20;99.90
9537;DHT22;4807;48.024;11.726;2023-01-16T03:54:57;-0.20;99.90
9537;DHT22;4807;48.024;11.726;2023-01-16T03:58:19;-0.30;99.90
9537;DHT22;4807;48.024;11.726;2023-01-16T04:01:39;-0.20;99.90
9537;DHT22;4807;48.024;11.726;2023-01-16T04:04:58;-0.20;99.90
9537;DHT22;4807;48.024;11.726;2023-01-16T04:08:14;-0.30;99.90
9537;DHT22;4807;48.024;11.726;2023-01-16T04:11:27;-0.30;99.90
9537;DHT22;4807;48.024;11.726;2023-01-16T04:14:38;-0.40;99.90
9537;DHT22;4807;48.024;11.726;2023-01-16T04:17:49;-0.50;99.90
9537;DHT22;4807;48.024;11.726;2023-01-16T04:20:59;-0.50;99.90
9537;DHT22;4807;48.024;11.726;2023-01-16T04:24:08;-0.50;99.90
9537;DHT22;4807;48.024;11.726;2023-01-16T04:27:19;-0.60;99.90
9537;DHT22;4807;48.024;11.726;2023-01-16T04:30:28;-0.70;99.90
9537;DHT22;4807;48.024;11.726;2023-01-16T04:33:36;-0.70;99.90
9537;DHT22;4807;48.024;11.726;2023-01-16T04:36:44;-0.60;99.90
9537;DHT22;4807;48.024;11.726;2023-01-16T04:39:53;-0.70;99.90
9537;DHT22;4807;48.024;11.726;2023-01-16T04:43:03;-0.80;99.90
9537;DHT22;4807;48.024;11.726;2023-01-16T04:46:14;-0.80;99.90
9537;DHT22;4807;48.024;11.726;2023-01-16T04:49:23;-1.30;99.90
9537;DHT22;4807;48.024;11.726;2023-01-16T04:52:31;-1.00;99.90
9537;DHT22;4807;48.024;11.726;2023-01-16T04:55:39;-0.90;99.90
9537;DHT22;4807;48.024;11.726;2023-01-16T04:58:49;-0.90;99.90
9537;DHT22;4807;48.024;11.726;2023-01-16T05:01:59;-0.90;99.90
9537;DHT22;4807;48.024;11.726;2023-01-16T05:05:08;-0.90;99.90
9537;DHT22;4807;48.024;11.726;2023-01-16T05:08:16;-0.80;99.90
9537;DHT22;4807;48.024;11.726;2023-01-16T05:11:25;-0.80;99.90
9537;DHT22;4807;48.024;11.726;2023-01-16T05:14:35;-0.80;99.90
9537;DHT22;4807;48.024;11.726;2023-01-16T05:17:43;-0.80;99.90
9537;DHT22;4807;48.024;11.726;2023-01-16T05:20:51;1.00;99.90
9537;DHT22;4807;48.024;11.726;2023-01-16T05:24:00;-1.00;99.90
9537;DHT22;4807;48.024;11.726;2023-01-16T05:27:08;-1.10;99.90
9537;DHT22;4807;48.024;11.726;2023-01-16T05:30:18;-1.10;99.90
9537;DHT22;4807;48.024;11.726;2023-01-16T05:33:27;-1.20;99.90
9537;DHT22;4807;48.024;11.726;2023-01-16T05:36:35;-1.20;99.90
9537;DHT22;4807;48.024;11.726;2023-01-16T05:39:43;-1.20;99.90
9537;DHT22;4807;48.024;11.726;2023-01-16T05:42:53;-1.30;99.90
9537;DHT22;4807;48.024;11.726;2023-01-16T05:46:05;-1.30;99.90
9537;DHT22;4807;48.024;11.726;2023-01-16T05:49:13;-1.30;99.90
9537;DHT22;4807;48.024;11.726;2023-01-16T05:52:21;-1.40;99.90
9537;DHT22;4807;48.024;11.726;2023-01-16T05:55:30;-1.40;99.90
9537;DHT22;4807;48.024;11.726;2023-01-16T05:58:38;-1.40;99.90
9537;DHT22;4807;48.024;11.726;2023-01-16T06:01:48;-1.40;99.90
9537;DHT22;4807;48.024;11.726;2023-01-16T06:04:57;-1.60;99.90
9537;DHT22;4807;48.024;11.726;2023-01-16T06:08:06;-1.60;99.90
9537;DHT22;4807;48.024;11.726;2023-01-16T06:11:14;-1.60;99.90
9537;DHT22;4807;48.024;11.726;2023-01-16T06:14:23;-1.60;99.90
9537;DHT22;4807;48.024;11.726;2023-01-16T06:17:34;-1.80;99.90
9537;DHT22;4807;48.024;11.726;2023-01-16T06:20:42;-1.80;99.90
9537;DHT22;4807;48.024;11.726;2023-01-16T06:23:51;-1.90;99.90
9537;DHT22;4807;48.024;11.726;2023-01-16T06:27:00;-1.80;99.90
9537;DHT22;4807;48.024;11.726;2023-01-16T06:30:10;-1.90;99.90
9537;DHT22;4807;48.024;11.726;2023-01-16T06:33:20;-1.80;99.90
9537;DHT22;4807;48.024;11.726;2023-01-16T06:36:29;-1.90;99.90
9537;DHT22;4807;48.024;11.726;2023-01-16T06:39:37;-1.90;99.90
9537;DHT22;4807;48.024;11.726;2023-01-16T06:42:46;-1.90;99.90
9537;DHT22;4807;48.024;11.726;2023-01-16T06:45:55;-1.80;99.90
9537;DHT22;4807;48.024;11.726;2023-01-16T06:49:06;-1.80;99.90
9537;DHT22;4807;48.024;11.726;2023-01-16T06:52:17;-1.40;99.90
9537;DHT22;4807;48.024;11.726;2023-01-16T06:55:26;-1.90;99.90
9537;DHT22;4807;48.024;11.726;2023-01-16T06:58:35;-2.00;99.90
9537;DHT22;4807;48.024;11.726;2023-01-16T07:01:43;-2.10;99.90
9537;DHT22;4807;48.024;11.726;2023-01-16T07:04:53;-2.00;99.90
9537;DHT22;4807;48.024;11.726;2023-01-16T07:08:02;-2.00;99.90
9537;DHT22;4807;48.024;11.726;2023-01-16T07:11:10;-1.90;99.90
9537;DHT22;4807;48.024;11.726;2023-01-16T07:14:19;-2.00;99.90
9537;DHT22;4807;48.024;11.726;2023-01-16T07:17:50;-2.10;99.90
9537;DHT22;4807;48.024;11.726;2023-01-16T07:21:25;-2.00;99.90
9537;DHT22;4807;48.024;11.726;2023-01-16T07:24:53;-2.00;99.90
9537;DHT22;4807;48.024;11.726;2023-01-16T07:28:03;-2.10;99.90
9537;DHT22;4807;48.024;11.726;2023-01-16T07:31:12;-2.00;99.90
9537;DHT22;4807;48.024;11.726;2023-01-16T07:34:21;-1.90;99.90
9537;DHT22;4807;48.024;11.726;2023-01-16T07:37:32;-1.80;99.90
9537;DHT22;4807;48.024;11.726;2023-01-16T07:40:40;-0.50;99.90
9537;DHT22;4807;48.024;11.726;2023-01-16T07:43:50;-1.80;99.90
9537;DHT22;4807;48.024;11.726;2023-01-16T07:46:59;-1.80;99.90
9537;DHT22;4807;48.024;11.726;2023-01-16T07:50:08;-1.40;99.90
9537;DHT22;4807;48.024;11.726;2023-01-16T07:53:19;-1.00;99.90
9537;DHT22;4807;48.024;11.726;2023-01-16T07:56:29;-0.90;99.90
9537;DHT22;4807;48.024;11.726;2023-01-16T07:59:38;-0.60;99.90
9537;DHT22;4807;48.024;11.726;2023-01-16T08:02:46;-0.30;99.90
9537;DHT22;4807;48.024;11.726;2023-01-16T08:05:56;0.20;99.90
9537;DHT22;4807;48.024;11.726;2023-01-16T08:09:06;0.50;99.90
9537;DHT22;4807;48.024;11.726;2023-01-16T08:12:15;0.50;99.90
9537;DHT22;4807;48.024;11.726;2023-01-16T08:15:24;0.60;99.90
9537;DHT22;4807;48.024;11.726;2023-01-16T08:18:33;0.80;99.90
9537;DHT22;4807;48.024;11.726;2023-01-16T08:21:42;0.90;99.90
9537;DHT22;4807;48.024;11.726;2023-01-16T08:24:53;0.80;99.90
9537;DHT22;4807;48.024;11.726;2023-01-16T08:28:05;0.70;99.90
9537;DHT22;4807;48.024;11.726;2023-01-16T08:31:14;0.70;99.90
9537;DHT22;4807;48.024;11.726;2023-01-16T08:34:25;0.80;99.90
9537;DHT22;4807;48.024;11.726;2023-01-16T08:37:34;0.70;99.90
9537;DHT22;4807;48.024;11.726;2023-01-16T08:40:44;0.80;99.90
9537;DHT22;4807;48.024;11.726;2023-01-16T08:43:53;1.50;99.90
9537;DHT22;4807;48.024;11.726;2023-01-16T08:47:22;0.90;99.90
9537;DHT22;4807;48.024;11.726;2023-01-16T08:50:57;1.10;99.90
9537;DHT22;4807;48.024;11.726;2023-01-16T08:54:22;1.20;99.90
9537;DHT22;4807;48.024;11.726;2023-01-16T08:57:32;1.30;99.90
9537;DHT22;4807;48.024;11.726;2023-01-16T09:00:41;1.50;99.90
9537;DHT22;4807;48.024;11.726;2023-01-16T09:03:50;1.60;99.90
9537;DHT22;4807;48.024;11.726;2023-01-16T09:06:58;1.70;99.90
9537;DHT22;4807;48.024;11.726;2023-01-16T09:10:08;1.70;99.90
9537;DHT22;4807;48.024;11.726;2023-01-16T09:13:19;1.90;99.90
9537;DHT22;4807;48.024;11.726;2023-01-16T09:16:45;1.90;99.90
9537;DHT22;4807;48.024;11.726;2023-01-16T09:19:54;1.90;99.90
9537;DHT22;4807;48.024;11.726;2023-01-16T09:23:03;2.10;99.90
9537;DHT22;4807;48.024;11.726;2023-01-16T09:26:12;2.10;99.90
9537;DHT22;4807;48.024;11.726;2023-01-16T09:29:22;2.20;99.90
9537;DHT22;4807;48.024;11.726;2023-01-16T09:32:30;2.20;99.90
9537;DHT22;4807;48.024;11.726;2023-01-16T09:35:41;2.30;99.90
9537;DHT22;4807;48.024;11.726;2023-01-16T09:38:50;2.40;99.90
9537;DHT22;4807;48.024;11.726;2023-01-16T09:42:24;2.40;99.90
9537;DHT22;4807;48.024;11.726;2023-01-16T09:46:10;2.50;99.90
9537;DHT22;4807;48.024;11.726;2023-01-16T09:49:25;2.50;99.90
9537;DHT22;4807;48.024;11.726;2023-01-16T09:52:40;2.70;99.90
9537;DHT22;4807;48.024;11.726;2023-01-16T09:56:11;2.70;99.90
9537;DHT22;4807;48.024;11.726;2023-01-16T09:59:41;2.80;99.90
9537;DHT22;4807;48.024;11.726;2023-01-16T10:02:54;2.80;99.90
9537;DHT22;4807;48.024;11.726;2023-01-16T10:06:12;2.80;99.90
9537;DHT22;4807;48.024;11.726;2023-01-16T10:09:34;2.90;99.90
9537;DHT22;4807;48.024;11.726;2023-01-16T10:13:07;2.90;99.90
9537;DHT22;4807;48.024;11.726;2023-01-16T10:16:52;3.10;99.90
9537;DHT22;4807;48.024;11.726;2023-01-16T10:20:29;3.20;99.90
9537;DHT22;4807;48.024;11.726;2023-01-16T10:24:00;3.20;99.90
9537;DHT22;4807;48.024;11.726;2023-01-16T10:27:20;3.40;99.90
9537;DHT22;4807;48.024;11.726;2023-01-16T10:30:39;3.50;99.90
9537;DHT22;4807;48.024;11.726;2023-01-16T10:33:55;3.50;99.90
9537;DHT22;4807;48.024;11.726;2023-01-16T10:37:10;3.40;99.90
9537;DHT22;4807;48.024;11.726;2023-01-16T10:40:22;3.30;99.90
9537;DHT22;4807;48.024;11.726;2023-01-16T10:43:37;3.40;99.90
9537;DHT22;4807;48.024;11.726;2023-01-16T10:47:08;4.60;99.90
9537;DHT22;4807;48.024;11.726;2023-01-16T10:50:37;3.70;99.90
9537;DHT22;4807;48.024;11.726;2023-01-16T10:53:47;3.70;99.90
9537;DHT22;4807;48.024;11.726;2023-01-16T10:56:55;3.80;99.90
9537;DHT22;4807;48.024;11.726;2023-01-16T11:00:15;3.80;99.90
9537;DHT22;4807;48.024;11.726;2023-01-16T11:03:33;3.90;99.80
9537;DHT22;4807;48.024;11.726;2023-01-16T11:06:43;4.00;99.90
9537;DHT22;4807;48.024;11.726;2023-01-16T11:09:53;4.20;99.20
9537;DHT22;4807;48.024;11.726;2023-01-16T11:13:02;4.20;98.90
9537;DHT22;4807;48.024;11.726;2023-01-16T11:16:28;4.30;98.70
9537;DHT22;4807;48.024;11.726;2023-01-16T11:19:55;4.70;98.60
9537;DHT22;4807;48.024;11.726;2023-01-16T11:23:16;4.90;98.20
9537;DHT22;4807;48.024;11.726;2023-01-16T11:26:29;5.00;97.90
9537;DHT22;4807;48.024;11.726;2023-01-16T11:29:39;5.10;97.90
9537;DHT22;4807;48.024;11.726;2023-01-16T11:32:49;5.10;97.60
9537;DHT22;4807;48.024;11.726;2023-01-16T11:36:04;5.00;97.50
9537;DHT22;4807;48.024;11.726;2023-01-16T11:39:18;5.00;97.60
9537;DHT22;4807;48.024;11.726;2023-01-16T11:42:33;4.90;98.00
9537;DHT22;4807;48.024;11.726;2023-01-16T11:45:58;5.00;97.60
9537;DHT22;4807;48.024;11.726;2023-01-16T11:49:16;5.00;97.30
9537;DHT22;4807;48.024;11.726;2023-01-16T11:52:26;5.00;97.40
9537;DHT22;4807;48.024;11.726;2023-01-16T11:55:55;5.00;97.30
9537;DHT22;4807;48.024;11.726;2023-01-16T11:59:25;5.00;97.40
9537;DHT22;4807;48.024;11.726;2023-01-16T12:03:00;5.00;97.40
9537;DHT22;4807;48.024;11.726;2023-01-16T12:06:38;5.20;97.10
9537;DHT22;4807;48.024;11.726;2023-01-16T12:09:54;5.20;97.40
9537;DHT22;4807;48.024;11.726;2023-01-16T12:13:10;5.30;97.00
9537;DHT22;4807;48.024;11.726;2023-01-16T12:16:50;5.40;96.70
9537;DHT22;4807;48.024;11.726;2023-01-16T12:20:26;5.30;96.30
9537;DHT22;4807;48.024;11.726;2023-01-16T12:24:09;5.50;96.60
9537;DHT22;4807;48.024;11.726;2023-01-16T12:27:37;5.50;96.60
9537;DHT22;4807;48.024;11.726;2023-01-16T12:31:01;5.50;96.60
9537;DHT22;4807;48.024;11.726;2023-01-16T12:34:57;5.40;96.60
9537;DHT22;4807;48.024;11.726;2023-01-16T12:38:25;5.40;96.90
9537;DHT22;4807;48.024;11.726;2023-01-16T12:41:38;5.60;96.40
9537;DHT22;4807;48.024;11.726;2023-01-16T12:45:23;5.90;96.00
9537;DHT22;4807;48.024;11.726;2023-01-16T12:48:58;5.90;95.50
9537;DHT22;4807;48.024;11.726;2023-01-16T12:52:30;6.00;95.20
9537;DHT22;4807;48.024;11.726;2023-01-16T12:55:58;6.00;95.50
9537;DHT22;4807;48.024;11.726;2023-01-16T12:59:28;6.00;94.90
9537;DHT22;4807;48.024;11.726;2023-01-16T13:02:43;6.00;96.00
9537;DHT22;4807;48.024;11.726;2023-01-16T13:05:57;6.20;95.70
9537;DHT22;4807;48.024;11.726;2023-01-16T13:09:14;6.00;96.00
9537;DHT22;4807;48.024;11.726;2023-01-16T13:12:31;6.00;95.60
9537;DHT22;4807;48.024;11.726;2023-01-16T13:16:05;6.00;95.30
9537;DHT22;4807;48.024;11.726;2023-01-16T13:19:22;6.00;95.20
9537;DHT22;4807;48.024;11.726;2023-01-16T13:22:41;5.90;95.40
9537;DHT22;4807;48.024;11.726;2023-01-16T13:25:59;5.80;95.30
9537;DHT22;4807;48.024;11.726;2023-01-16T13:29:13;5.80;95.40
9537;DHT22;4807;48.024;11.726;2023-01-16T13:32:28;5.70;95.60
9537;DHT22;4807;48.024;11.726;2023-01-16T13:35:45;5.60;95.90
9537;DHT22;4807;48.024;11.726;2023-01-16T13:43:01;5.50;96.80
9537;DHT22;4807;48.024;11.726;2023-01-16T13:46:31;5.50;96.70
9537;DHT22;4807;48.024;11.726;2023-01-16T13:49:48;5.60;96.80
9537;DHT22;4807;48.024;11.726;2023-01-16T13:53:02;5.60;97.00
9537;DHT22;4807;48.024;11.726;2023-01-16T13:56:14;5.50;97.50
9537;DHT22;4807;48.024;11.726;2023-01-16T13:59:40;5.40;98.30
9537;DHT22;4807;48.024;11.726;2023-01-16T14:03:19;5.30;98.60
9537;DHT22;4807;48.024;11.726;2023-01-16T14:06:42;5.30;98.30
9537;DHT22;4807;48.024;11.726;2023-01-16T14:10:06;5.20;98.30
9537;DHT22;4807;48.024;11.726;2023-01-16T14:13:32;5.20;98.60
9537;DHT22;4807;48.024;11.726;2023-01-16T14:17:00;5.20;98.70
9537;DHT22;4807;48.024;11.726;2023-01-16T14:20:34;5.60;98.70
9537;DHT22;4807;48.024;11.726;2023-01-16T14:23:50;5.30;98.50
9537;DHT22;4807;48.024;11.726;2023-01-16T14:27:14;5.40;98.60
9537;DHT22;4807;48.024;11.726;2023-01-16T14:30:29;5.10;98.60
9537;DHT22;4807;48.024;11.726;2023-01-16T14:33:44;5.10;98.80
9537;DHT22;4807;48.024;11.726;2023-01-16T14:37:00;5.10;99.00
9537;DHT22;4807;48.024;11.726;2023-01-16T14:40:20;5.00;98.70
9537;DHT22;4807;48.024;11.726;2023-01-16T14:44:12;5.00;98.90
9537;DHT22;4807;48.024;11.726;2023-01-16T14:47:45;4.80;99.10
9537;DHT22;4807;48.024;11.726;2023-01-16T14:51:29;4.80;98.70
9537;DHT22;4807;48.024;11.726;2023-01-16T14:54:57;4.70;99.00
9537;DHT22;4807;48.024;11.726;2023-01-16T14:58:26;4.50;99.60
9537;DHT22;4807;48.024;11.726;2023-01-16T15:01:45;4.50;99.90
9537;DHT22;4807;48.024;11.726;2023-01-16T15:05:14;4.40;99.90
9537;DHT22;4807;48.024;11.726;2023-01-16T15:08:30;4.40;99.90
9537;DHT22;4807;48.024;11.726;2023-01-16T15:11:46;4.20;99.90
9537;DHT22;4807;48.024;11.726;2023-01-16T15:15:00;4.10;99.90
9537;DHT22;4807;48.024;11.726;2023-01-16T15:18:12;4.00;99.90
9537;DHT22;4807;48.024;11.726;2023-01-16T15:21:45;3.90;99.90
9537;DHT22;4807;48.024;11.726;2023-01-16T15:25:14;3.80;99.90
9537;DHT22;4807;48.024;11.726;2023-01-16T15:28:35;2.00;99.90
9537;DHT22;4807;48.024;11.726;2023-01-16T15:32:00;3.80;99.90
9537;DHT22;4807;48.024;11.726;2023-01-16T15:35:14;3.70;99.90
9537;DHT22;4807;48.024;11.726;2023-01-16T15:38:24;4.40;99.90
9537;DHT22;4807;48.024;11.726;2023-01-16T15:41:34;3.70;99.90
9537;DHT22;4807;48.024;11.726;2023-01-16T15:45:04;3.40;99.90
9537;DHT22;4807;48.024;11.726;2023-01-16T15:48:44;3.20;99.90
9537;DHT22;4807;48.024;11.726;2023-01-16T15:52:18;3.10;99.90
9537;DHT22;4807;48.024;11.726;2023-01-16T15:55:28;3.00;99.90
9537;DHT22;4807;48.024;11.726;2023-01-16T15:58:40;2.90;99.90
9537;DHT22;4807;48.024;11.726;2023-01-16T16:02:16;2.80;99.90
9537;DHT22;4807;48.024;11.726;2023-01-16T16:05:27;2.90;99.90
9537;DHT22;4807;48.024;11.726;2023-01-16T16:08:39;2.90;99.90
9537;DHT22;4807;48.024;11.726;2023-01-16T16:11:51;2.90;99.90
9537;DHT22;4807;48.024;11.726;2023-01-16T16:15:24;2.70;99.90
9537;DHT22;4807;48.024;11.726;2023-01-16T16:18:54;3.90;99.90
9537;DHT22;4807;48.024;11.726;2023-01-16T16:22:09;2.50;99.90
9537;DHT22;4807;48.024;11.726;2023-01-16T16:25:44;2.40;99.90
9537;DHT22;4807;48.024;11.726;2023-01-16T16:28:56;2.30;99.90
9537;DHT22;4807;48.024;11.726;2023-01-16T16:32:13;2.20;99.90
9537;DHT22;4807;48.024;11.726;2023-01-16T16:35:27;2.10;99.90
9537;DHT22;4807;48.024;11.726;2023-01-16T16:38:46;2.10;99.90
9537;DHT22;4807;48.024;11.726;2023-01-16T16:41:57;2.40;99.90
9537;DHT22;4807;48.024;11.726;2023-01-16T16:45:28;4.40;99.90
9537;DHT22;4807;48.024;11.726;2023-01-16T16:48:46;2.30;99.90
9537;DHT22;4807;48.024;11.726;2023-01-16T16:52:33;2.10;99.90
9537;DHT22;4807;48.024;11.726;2023-01-16T16:55:48;2.00;99.90
9537;DHT22;4807;48.024;11.726;2023-01-16T16:58:59;1.70;99.90
9537;DHT22;4807;48.024;11.726;2023-01-16T17:02:15;1.90;99.90
9537;DHT22;4807;48.024;11.726;2023-01-16T17:05:26;1.90;99.90
9537;DHT22;4807;48.024;11.726;2023-01-16T17:08:35;1.60;99.90
9537;DHT22;4807;48.024;11.726;2023-01-16T17:11:44;1.50;99.90
9537;DHT22;4807;48.024;11.726;2023-01-16T17:14:52;1.40;99.90
9537;DHT22;4807;48.024;11.726;2023-01-16T17:18:01;1.30;99.90
9537;DHT22;4807;48.024;11.726;2023-01-16T17:21:15;1.20;99.90
9537;DHT22;4807;48.024;11.726;2023-01-16T17:24:25;1.20;99.90
9537;DHT22;4807;48.024;11.726;2023-01-16T17:27:33;1.30;99.90
9537;DHT22;4807;48.024;11.726;2023-01-16T17:30:43;1.20;99.90
9537;DHT22;4807;48.024;11.726;2023-01-16T17:33:51;1.20;99.90
9537;DHT22;4807;48.024;11.726;2023-01-16T17:37:04;1.50;99.90
9537;DHT22;4807;48.024;11.726;2023-01-16T17:40:21;1.50;99.90
9537;DHT22;4807;48.024;11.726;2023-01-16T17:43:29;1.30;99.90
9537;DHT22;4807;48.024;11.726;2023-01-16T17:46:55;1.10;99.90
9537;DHT22;4807;48.024;11.726;2023-01-16T17:50:04;1.00;99.90
9537;DHT22;4807;48.024;11.726;2023-01-16T17:53:30;0.90;99.90
9537;DHT22;4807;48.024;11.726;2023-01-16T17:56:39;0.80;99.90
9537;DHT22;4807;48.024;11.726;2023-01-16T17:59:47;0.80;99.90
9537;DHT22;4807;48.024;11.726;2023-01-16T18:02:56;0.80;99.90
9537;DHT22;4807;48.024;11.726;2023-01-16T18:06:06;0.80;99.90
9537;DHT22;4807;48.024;11.726;2023-01-16T18:09:17;0.80;99.90
9537;DHT22;4807;48.024;11.726;2023-01-16T18:12:26;0.80;99.90
9537;DHT22;4807;48.024;11.726;2023-01-16T18:15:52;0.80;99.90
9537;DHT22;4807;48.024;11.726;2023-01-16T18:19:17;0.80;99.90
9537;DHT22;4807;48.024;11.726;2023-01-16T18:22:27;0.70;99.90
9537;DHT22;4807;48.024;11.726;2023-01-16T18:25:39;0.70;99.90
9537;DHT22;4807;48.024;11.726;2023-01-16T18:28:58;0.50;99.90
9537;DHT22;4807;48.024;11.726;2023-01-16T18:32:06;0.50;99.90
9537;DHT22;4807;48.024;11.726;2023-01-16T18:35:29;0.30;99.90
9537;DHT22;4807;48.024;11.726;2023-01-16T18:38:37;0.10;99.90
9537;DHT22;4807;48.024;11.726;2023-01-16T18:42:54;0.10;99.90
9537;DHT22;4807;48.024;11.726;2023-01-16T18:51:37;-0.20;99.90
9537;DHT22;4807;48.024;11.726;2023-01-16T18:55:10;-0.10;99.90
9537;DHT22;4807;48.024;11.726;2023-01-16T18:58:39;-0.10;99.90
9537;DHT22;4807;48.024;11.726;2023-01-16T19:02:32;-0.10;99.90
9537;DHT22;4807;48.024;11.726;2023-01-16T19:05:49;0.00;99.90
9537;DHT22;4807;48.024;11.726;2023-01-16T19:08:57;0.30;99.90
9537;DHT22;4807;48.024;11.726;2023-01-16T19:12:08;0.40;99.90
9537;DHT22;4807;48.024;11.726;2023-01-16T19:15:23;0.60;99.90
9537;DHT22;4807;48.024;11.726;2023-01-16T19:18:36;0.70;99.90
9537;DHT22;4807;48.024;11.726;2023-01-16T19:21:58;0.80;99.90
9537;DHT22;4807;48.024;11.726;2023-01-16T19:25:07;1.00;99.90
9537;DHT22;4807;48.024;11.726;2023-01-16T19:28:16;1.10;99.90
9537;DHT22;4807;48.024;11.726;2023-01-16T19:31:29;2.90;99.90
9537;DHT22;4807;48.024;11.726;2023-01-16T19:34:37;1.50;99.90
9537;DHT22;4807;48.024;11.726;2023-01-16T19:37:47;1.60;99.90
9537;DHT22;4807;48.024;11.726;2023-01-16T19:41:00;1.80;99.90
9537;DHT22;4807;48.024;11.726;2023-01-16T19:44:10;1.90;99.90
9537;DHT22;4807;48.024;11.726;2023-01-16T19:47:30;2.00;99.90
9537;DHT22;4807;48.024;11.726;2023-01-16T19:50:38;1.90;97.90
9537;DHT22;4807;48.024;11.726;2023-01-16T19:53:47;2.10;98.20
9537;DHT22;4807;48.024;11.726;2023-01-16T19:56:56;2.60;97.60
9537;DHT22;4807;48.024;11.726;2023-01-16T20:00:05;2.90;97.60
9537;DHT22;4807;48.024;11.726;2023-01-16T20:03:19;3.10;98.30
9537;DHT22;4807;48.024;11.726;2023-01-16T20:06:27;3.20;99.90
9537;DHT22;4807;48.024;11.726;2023-01-16T20:09:37;3.30;99.90
9537;DHT22;4807;48.024;11.726;2023-01-16T20:12:48;3.20;99.90
9537;DHT22;4807;48.024;11.726;2023-01-16T20:16:01;3.20;99.90
9537;DHT22;4807;48.024;11.726;2023-01-16T20:19:16;3.20;99.90
9537;DHT22;4807;48.024;11.726;2023-01-16T20:22:26;3.10;99.90
9537;DHT22;4807;48.024;11.726;2023-01-16T20:25:43;3.10;99.90
9537;DHT22;4807;48.024;11.726;2023-01-16T20:28:52;3.10;99.90
9537;DHT22;4807;48.024;11.726;2023-01-16T20:32:01;3.10;99.90
9537;DHT22;4807;48.024;11.726;2023-01-16T20:35:13;3.10;99.90
9537;DHT22;4807;48.024;11.726;2023-01-16T20:38:23;3.00;99.90
9537;DHT22;4807;48.024;11.726;2023-01-16T20:41:33;3.00;99.90
9537;DHT22;4807;48.024;11.726;2023-01-16T20:44:59;3.00;99.90
9537;DHT22;4807;48.024;11.726;2023-01-16T20:48:25;3.10;99.90
9537;DHT22;4807;48.024;11.726;2023-01-16T20:51:39;3.10;99.90
9537;DHT22;4807;48.024;11.726;2023-01-16T20:54:48;3.10;99.30
9537;DHT22;4807;48.024;11.726;2023-01-16T20:57:57;3.10;98.90
9537;DHT22;4807;48.024;11.726;2023-01-16T21:01:07;3.10;98.60
9537;DHT22;4807;48.024;11.726;2023-01-16T21:04:18;3.00;98.80
9537;DHT22;4807;48.024;11.726;2023-01-16T21:07:30;3.00;98.90
9537;DHT22;4807;48.024;11.726;2023-01-16T21:30:32;2.30;99.90
9537;DHT22;4807;48.024;11.726;2023-01-16T21:33:40;2.10;99.90
9537;DHT22;4807;48.024;11.726;2023-01-16T21:36:49;2.00;99.90
9537;DHT22;4807;48.024;11.726;2023-01-16T21:39:57;1.80;99.90
9537;DHT22;4807;48.024;11.726;2023-01-16T21:43:08;1.80;99.90
9537;DHT22;4807;48.024;11.726;2023-01-16T21:46:34;1.90;99.90
9537;DHT22;4807;48.024;11.726;2023-01-16T21:49:44;1.80;99.90